Terminal Aerodrome Forecast
Issued by NWS

Current Version | Previous Version | Text Only | Print | Product List | Glossary Off
Versions: 1 2 3 4 5 6 7 8 9 10 11 12 13 14 15 16

000
FTUS44 KSJT 301700
TAFJCT
TAF
KJCT 301720Z 3018/3118 18005KT P6SM SCT250
     FM310700 19003KT P6SM OVC015
     FM311400 21004KT P6SM OVC250=

USA.gov is the U.S. government's official web portal to all federal, state and local government web resources and services.